Terminal Aerodrome Forecast
Issued by NWS Sioux Falls, SD

Home | Current Version | Previous Version | Text Only | Print | Product List | Glossary On
Versions: 1 2 3 4 5 6 7 8 9 10 11 12 13 14 15
000
FTUS43 KFSD 292341
TAFSUX
TAF
KSUX 292341Z 3000/3024 07012KT P6SM BKN020 BKN080
     FM300600 08014G21KT P6SM RA OVC020
     FM300800 07018G25KT P6SM RA OVC015
     FM301300 06019G27KT 3SM RA OVC007=

USA.gov is the U.S. government's official web portal to all federal, state and local government web resources and services.